Aviation Digital Data Service (ADDS)

Output produced by METARs form (0539 UTC 20 September 2017)
found at http://www.aviationweather.gov/adds/metars/
 
EPLL 200530Z 01004KT 9999 -RA SCT040 12/09 Q1015
TAF EPLL 200530Z 2006/2106 02008KT 9999 -RA BKN020 
     BECMG 2006/2008 BKN014 
     TEMPO 2006/2019 4000 -RA BR BKN005 
     BECMG 2019/2021 BKN007 
     TEMPO 2021/2106 3000 BR BKN003